sensor_id;sensor_type;location;lat;lon;timestamp;pressure;altitude;pressure_sealevel;temperature;humidity
48796;BME280;34607;48.520;-1.330;2024-02-26T08:43:52;98272.47;;;6.51;100.00
48796;BME280;34607;48.520;-1.330;2024-02-26T08:46:23;98281.91;;;6.61;100.00
48796;BME280;34607;48.520;-1.330;2024-02-26T08:48:50;98270.78;;;6.51;100.00
48796;BME280;34607;48.520;-1.330;2024-02-26T08:51:17;98305.06;;;6.49;100.00
48796;BME280;34607;48.520;-1.330;2024-02-26T08:53:44;98289.63;;;6.44;100.00
48796;BME280;34607;48.520;-1.330;2024-02-26T08:56:11;98306.75;;;6.61;100.00
48796;BME280;34607;48.520;-1.330;2024-02-26T08:58:42;98315.34;;;6.69;100.00
48796;BME280;34607;48.520;-1.330;2024-02-26T09:01:11;98324.78;;;6.67;100.00
48796;BME280;34607;48.520;-1.330;2024-02-26T09:03:38;98330.78;;;6.72;100.00
48796;BME280;34607;48.520;-1.330;2024-02-26T09:06:06;98315.34;;;6.56;100.00
48796;BME280;34607;48.520;-1.330;2024-02-26T09:08:33;98360.75;;;6.57;100.00
48796;BME280;34607;48.520;-1.330;2024-02-26T09:11:01;98357.31;;;6.68;100.00
48796;BME280;34607;48.520;-1.330;2024-02-26T09:13:29;98371.91;;;6.58;100.00
48796;BME280;34607;48.520;-1.330;2024-02-26T09:15:56;98376.19;;;6.53;100.00
48796;BME280;34607;48.520;-1.330;2024-02-26T09:18:25;98390.75;;;6.49;100.00
48796;BME280;34607;48.520;-1.330;2024-02-26T09:20:54;98398.47;;;6.55;100.00
48796;BME280;34607;48.520;-1.330;2024-02-26T09:23:21;98394.19;;;6.51;100.00
48796;BME280;34607;48.520;-1.330;2024-02-26T09:25:48;98402.75;;;6.52;100.00
48796;BME280;34607;48.520;-1.330;2024-02-26T09:28:15;98409.63;;;6.50;100.00
48796;BME280;34607;48.520;-1.330;2024-02-26T09:30:43;98405.34;;;6.56;100.00
48796;BME280;34607;48.520;-1.330;2024-02-26T09:33:10;98411.34;;;6.62;100.00
48796;BME280;34607;48.520;-1.330;2024-02-26T09:35:38;98418.22;;;6.58;100.00
48796;BME280;34607;48.520;-1.330;2024-02-26T09:38:06;98433.63;;;6.63;100.00
48796;BME280;34607;48.520;-1.330;2024-02-26T09:40:33;98433.63;;;6.66;100.00
48796;BME280;34607;48.520;-1.330;2024-02-26T09:43:01;98443.06;;;6.68;100.00
48796;BME280;34607;48.520;-1.330;2024-02-26T09:45:32;98455.94;;;6.74;100.00
48796;BME280;34607;48.520;-1.330;2024-02-26T09:48:00;98475.63;;;6.66;100.00
48796;BME280;34607;48.520;-1.330;2024-02-26T09:50:29;98464.50;;;6.72;100.00
48796;BME280;34607;48.520;-1.330;2024-02-26T09:52:57;98474.75;;;6.63;100.00
48796;BME280;34607;48.520;-1.330;2024-02-26T09:55:28;98465.34;;;6.68;100.00
48796;BME280;34607;48.520;-1.330;2024-02-26T09:57:56;98478.22;;;6.74;100.00
48796;BME280;34607;48.520;-1.330;2024-02-26T10:00:25;98485.06;;;6.69;100.00
48796;BME280;34607;48.520;-1.330;2024-02-26T10:02:56;98473.06;;;6.59;100.00
48796;BME280;34607;48.520;-1.330;2024-02-26T10:05:25;98485.03;;;6.61;100.00
48796;BME280;34607;48.520;-1.330;2024-02-26T10:07:53;98511.59;;;6.49;100.00
48796;BME280;34607;48.520;-1.330;2024-02-26T10:10:23;98508.22;;;6.75;100.00
48796;BME280;34607;48.520;-1.330;2024-02-26T10:12:50;98511.66;;;6.80;100.00
48796;BME280;34607;48.520;-1.330;2024-02-26T10:15:17;98528.81;;;6.69;100.00
48796;BME280;34607;48.520;-1.330;2024-02-26T10:17:44;98526.22;;;6.77;100.00
48796;BME280;34607;48.520;-1.330;2024-02-26T10:20:15;98479.03;;;6.45;100.00
48796;BME280;34607;48.520;-1.330;2024-02-26T10:22:43;98494.50;;;6.62;100.00
48796;BME280;34607;48.520;-1.330;2024-02-26T10:25:09;98518.53;;;6.70;100.00
48796;BME280;34607;48.520;-1.330;2024-02-26T10:27:37;98547.69;;;6.74;100.00
48796;BME280;34607;48.520;-1.330;2024-02-26T10:30:16;98545.94;;;6.74;100.00
48796;BME280;34607;48.520;-1.330;2024-02-26T10:32:44;98557.06;;;6.63;100.00
48796;BME280;34607;48.520;-1.330;2024-02-26T10:35:12;98547.66;;;6.69;100.00
48796;BME280;34607;48.520;-1.330;2024-02-26T10:37:40;98599.97;;;6.74;100.00
48796;BME280;34607;48.520;-1.330;2024-02-26T10:40:10;98570.78;;;6.66;100.00
48796;BME280;34607;48.520;-1.330;2024-02-26T10:42:38;98588.81;;;6.72;100.00
48796;BME280;34607;48.520;-1.330;2024-02-26T10:45:05;98606.00;;;6.84;100.00
48796;BME280;34607;48.520;-1.330;2024-02-26T10:47:33;98619.69;;;6.80;100.00
48796;BME280;34607;48.520;-1.330;2024-02-26T10:50:01;98626.59;;;6.83;100.00
48796;BME280;34607;48.520;-1.330;2024-02-26T10:52:31;98618.00;;;6.76;100.00
48796;BME280;34607;48.520;-1.330;2024-02-26T10:55:00;98636.84;;;6.75;100.00
48796;BME280;34607;48.520;-1.330;2024-02-26T10:57:32;98610.28;;;6.87;100.00
48796;BME280;34607;48.520;-1.330;2024-02-26T11:00:02;98627.41;;;6.80;100.00
48796;BME280;34607;48.520;-1.330;2024-02-26T11:02:31;98641.16;;;6.87;100.00
48796;BME280;34607;48.520;-1.330;2024-02-26T11:04:58;98639.41;;;6.78;100.00
48796;BME280;34607;48.520;-1.330;2024-02-26T11:07:27;98650.59;;;6.77;100.00
48796;BME280;34607;48.520;-1.330;2024-02-26T11:09:57;98655.75;;;6.86;100.00
48796;BME280;34607;48.520;-1.330;2024-02-26T11:12:27;98666.88;;;6.79;100.00
48796;BME280;34607;48.520;-1.330;2024-02-26T11:14:56;98654.03;;;6.85;100.00
48796;BME280;34607;48.520;-1.330;2024-02-26T11:17:26;98663.47;;;6.83;100.00
48796;BME280;34607;48.520;-1.330;2024-02-26T11:19:56;98685.72;;;6.78;100.00
48796;BME280;34607;48.520;-1.330;2024-02-26T11:22:23;98665.19;;;6.84;100.00
48796;BME280;34607;48.520;-1.330;2024-02-26T11:24:52;98705.53;;;6.91;100.00
48796;BME280;34607;48.520;-1.330;2024-02-26T11:27:22;98713.22;;;6.87;100.00
48796;BME280;34607;48.520;-1.330;2024-02-26T11:29:52;98711.53;;;6.93;100.00
48796;BME280;34607;48.520;-1.330;2024-02-26T11:32:20;98667.66;;;6.63;100.00
48796;BME280;34607;48.520;-1.330;2024-02-26T11:34:49;98702.94;;;6.91;100.00
48796;BME280;34607;48.520;-1.330;2024-02-26T11:37:17;98713.97;;;6.64;100.00
48796;BME280;34607;48.520;-1.330;2024-02-26T11:39:45;98738.88;;;6.74;100.00
48796;BME280;34607;48.520;-1.330;2024-02-26T11:42:14;98744.88;;;6.70;100.00
48796;BME280;34607;48.520;-1.330;2024-02-26T11:44:42;98770.59;;;6.72;100.00
48796;BME280;34607;48.520;-1.330;2024-02-26T11:47:13;98775.75;;;6.72;100.00
48796;BME280;34607;48.520;-1.330;2024-02-26T11:49:40;98776.50;;;6.57;100.00
48796;BME280;34607;48.520;-1.330;2024-02-26T11:52:10;98766.22;;;6.59;100.00
48796;BME280;34607;48.520;-1.330;2024-02-26T11:54:44;98794.44;;;6.52;100.00
48796;BME280;34607;48.520;-1.330;2024-02-26T11:57:23;98794.47;;;6.55;100.00
48796;BME280;34607;48.520;-1.330;2024-02-26T11:59:50;98808.09;;;6.42;100.00
48796;BME280;34607;48.520;-1.330;2024-02-26T12:02:44;98818.41;;;6.47;100.00
48796;BME280;34607;48.520;-1.330;2024-02-26T12:05:14;98834.53;;;6.29;100.00
48796;BME280;34607;48.520;-1.330;2024-02-26T12:07:45;98793.28;;;6.13;100.00
48796;BME280;34607;48.520;-1.330;2024-02-26T12:10:24;98824.34;;;6.36;100.00
48796;BME280;34607;48.520;-1.330;2024-02-26T12:12:58;98830.28;;;6.31;100.00
48796;BME280;34607;48.520;-1.330;2024-02-26T12:15:30;98834.47;;;6.19;100.00
48796;BME280;34607;48.520;-1.330;2024-02-26T12:17:58;98823.34;;;6.24;100.00
48796;BME280;34607;48.520;-1.330;2024-02-26T12:20:26;98840.56;;;6.34;100.00
48796;BME280;34607;48.520;-1.330;2024-02-26T12:22:56;98858.56;;;6.31;100.00
48796;BME280;34607;48.520;-1.330;2024-02-26T12:25:25;98816.44;;;6.18;100.00
48796;BME280;34607;48.520;-1.330;2024-02-26T12:27:53;98849.25;;;6.45;100.00
48796;BME280;34607;48.520;-1.330;2024-02-26T12:30:21;98850.94;;;6.40;100.00
48796;BME280;34607;48.520;-1.330;2024-02-26T12:32:48;98881.06;;;6.53;100.00
48796;BME280;34607;48.520;-1.330;2024-02-26T12:35:17;98871.34;;;6.25;100.00
48796;BME280;34607;48.520;-1.330;2024-02-26T12:37:44;98877.56;;;6.48;100.00
48796;BME280;34607;48.520;-1.330;2024-02-26T12:40:13;98887.75;;;6.39;100.00
48796;BME280;34607;48.520;-1.330;2024-02-26T12:42:41;98870.66;;;6.44;100.00
48796;BME280;34607;48.520;-1.330;2024-02-26T12:45:10;98883.75;;;6.69;100.00
48796;BME280;34607;48.520;-1.330;2024-02-26T12:47:38;98902.56;;;6.65;100.00
48796;BME280;34607;48.520;-1.330;2024-02-26T12:50:06;98882.00;;;6.66;100.00
48796;BME280;34607;48.520;-1.330;2024-02-26T12:52:34;98892.25;;;6.59;100.00
48796;BME280;34607;48.520;-1.330;2024-02-26T12:55:02;98886.13;;;6.47;100.00
48796;BME280;34607;48.520;-1.330;2024-02-26T12:57:31;98888.78;;;6.55;100.00
48796;BME280;34607;48.520;-1.330;2024-02-26T12:59:59;98883.66;;;6.60;100.00
48796;BME280;34607;48.520;-1.330;2024-02-26T13:02:27;98916.16;;;6.48;100.00
48796;BME280;34607;48.520;-1.330;2024-02-26T13:04:55;98919.56;;;6.49;100.00
48796;BME280;34607;48.520;-1.330;2024-02-26T13:07:22;98912.56;;;6.32;100.00
48796;BME280;34607;48.520;-1.330;2024-02-26T13:09:49;98914.38;;;6.41;100.00
48796;BME280;34607;48.520;-1.330;2024-02-26T13:12:18;98922.25;;;6.58;100.00
48796;BME280;34607;48.520;-1.330;2024-02-26T13:14:46;98928.25;;;6.59;100.00
48796;BME280;34607;48.520;-1.330;2024-02-26T13:17:13;98929.94;;;6.60;100.00
48796;BME280;34607;48.520;-1.330;2024-02-26T13:19:49;98934.25;;;6.59;100.00
48796;BME280;34607;48.520;-1.330;2024-02-26T13:22:20;98922.00;;;6.35;100.00
48796;BME280;34607;48.520;-1.330;2024-02-26T13:24:53;98936.69;;;6.47;100.00
48796;BME280;34607;48.520;-1.330;2024-02-26T13:27:21;98933.25;;;6.43;100.00
48796;BME280;34607;48.520;-1.330;2024-02-26T13:30:02;98959.69;;;6.33;100.00
48796;BME280;34607;48.520;-1.330;2024-02-26T13:32:32;98960.31;;;6.13;100.00
48796;BME280;34607;48.520;-1.330;2024-02-26T13:35:06;98954.44;;;6.22;100.00
48796;BME280;34607;48.520;-1.330;2024-02-26T13:37:34;98971.53;;;6.17;100.00
48796;BME280;34607;48.520;-1.330;2024-02-26T13:40:05;98981.81;;;6.20;100.00
48796;BME280;34607;48.520;-1.330;2024-02-26T13:42:32;98988.59;;;6.12;100.00
48796;BME280;34607;48.520;-1.330;2024-02-26T13:45:01;98980.97;;;6.19;100.00
48796;BME280;34607;48.520;-1.330;2024-02-26T13:47:28;98980.88;;;6.13;100.00
48796;BME280;34607;48.520;-1.330;2024-02-26T13:49:55;98997.94;;;6.05;100.00
48796;BME280;34607;48.520;-1.330;2024-02-26T13:52:22;99005.78;;;6.16;100.00
48796;BME280;34607;48.520;-1.330;2024-02-26T13:54:49;98998.13;;;6.24;100.00
48796;BME280;34607;48.520;-1.330;2024-02-26T13:57:16;99008.50;;;6.30;100.00
48796;BME280;34607;48.520;-1.330;2024-02-26T13:59:44;99003.34;;;6.28;100.00
48796;BME280;34607;48.520;-1.330;2024-02-26T14:02:12;99014.47;;;6.29;100.00
48796;BME280;34607;48.520;-1.330;2024-02-26T14:04:39;98995.50;;;6.17;100.00
48796;BME280;34607;48.520;-1.330;2024-02-26T14:07:07;99016.13;;;6.21;100.00
48796;BME280;34607;48.520;-1.330;2024-02-26T14:09:34;99052.59;;;5.95;100.00
48796;BME280;34607;48.520;-1.330;2024-02-26T14:12:01;99049.34;;;6.05;100.00
48796;BME280;34607;48.520;-1.330;2024-02-26T14:14:28;99054.63;;;6.17;100.00
48796;BME280;34607;48.520;-1.330;2024-02-26T14:16:58;99060.66;;;6.21;100.00
48796;BME280;34607;48.520;-1.330;2024-02-26T14:19:26;99067.50;;;6.19;100.00
48796;BME280;34607;48.520;-1.330;2024-02-26T14:21:54;99070.81;;;6.10;100.00
48796;BME280;34607;48.520;-1.330;2024-02-26T14:24:21;99075.84;;;6.04;100.00
48796;BME280;34607;48.520;-1.330;2024-02-26T14:26:48;99065.22;;;5.81;100.00
48796;BME280;34607;48.520;-1.330;2024-02-26T14:29:15;99090.53;;;6.13;100.00
48796;BME280;34607;48.520;-1.330;2024-02-26T14:31:43;99090.28;;;5.96;100.00
48796;BME280;34607;48.520;-1.330;2024-02-26T14:34:10;99110.25;;;6.12;100.00
48796;BME280;34607;48.520;-1.330;2024-02-26T14:36:38;99105.03;;;6.08;100.00
48796;BME280;34607;48.520;-1.330;2024-02-26T14:39:05;99113.50;;;6.00;100.00
48796;BME280;34607;48.520;-1.330;2024-02-26T14:41:32;99116.88;;;5.98;100.00
48796;BME280;34607;48.520;-1.330;2024-02-26T14:43:59;99106.72;;;6.06;100.00
48796;BME280;34607;48.520;-1.330;2024-02-26T14:46:26;99125.44;;;5.97;100.00
48796;BME280;34607;48.520;-1.330;2024-02-26T14:48:54;99130.75;;;6.09;100.00
48796;BME280;34607;48.520;-1.330;2024-02-26T14:51:22;99130.03;;;6.18;100.00
48796;BME280;34607;48.520;-1.330;2024-02-26T14:53:50;99140.19;;;6.10;100.00
48796;BME280;34607;48.520;-1.330;2024-02-26T14:56:18;99145.56;;;6.26;100.00
48796;BME280;34607;48.520;-1.330;2024-02-26T14:58:45;99146.41;;;6.26;100.00
48796;BME280;34607;48.520;-1.330;2024-02-26T15:01:13;99149.78;;;6.24;100.00
48796;BME280;34607;48.520;-1.330;2024-02-26T15:03:40;99154.78;;;6.13;100.00
48796;BME280;34607;48.520;-1.330;2024-02-26T15:06:07;99140.41;;;6.24;100.00
48796;BME280;34607;48.520;-1.330;2024-02-26T15:08:34;99155.84;;;6.26;100.00
48796;BME280;34607;48.520;-1.330;2024-02-26T15:11:03;99162.53;;;6.14;100.00
48796;BME280;34607;48.520;-1.330;2024-02-26T15:13:31;99132.13;;;5.89;100.00
48796;BME280;34607;48.520;-1.330;2024-02-26T15:15:58;99173.69;;;6.16;100.00
48796;BME280;34607;48.520;-1.330;2024-02-26T15:18:25;99183.16;;;6.19;100.00
48796;BME280;34607;48.520;-1.330;2024-02-26T15:20:52;99188.28;;;6.17;100.00
48796;BME280;34607;48.520;-1.330;2024-02-26T15:23:19;99188.41;;;6.27;100.00
48796;BME280;34607;48.520;-1.330;2024-02-26T15:25:46;99202.13;;;6.29;100.00
48796;BME280;34607;48.520;-1.330;2024-02-26T15:28:15;99178.78;;;6.13;100.00
48796;BME280;34607;48.520;-1.330;2024-02-26T15:30:42;99206.44;;;6.30;100.00
48796;BME280;34607;48.520;-1.330;2024-02-26T15:33:09;99210.84;;;6.37;100.00
48796;BME280;34607;48.520;-1.330;2024-02-26T15:35:37;99194.38;;;6.24;100.00
48796;BME280;34607;48.520;-1.330;2024-02-26T15:38:04;99199.50;;;6.23;100.00
48796;BME280;34607;48.520;-1.330;2024-02-26T15:40:31;99225.28;;;6.27;100.00
48796;BME280;34607;48.520;-1.330;2024-02-26T15:42:58;99190.16;;;6.28;100.00
48796;BME280;34607;48.520;-1.330;2024-02-26T15:45:28;99225.28;;;6.29;100.00
48796;BME280;34607;48.520;-1.330;2024-02-26T15:47:58;99221.28;;;6.49;100.00
48796;BME280;34607;48.520;-1.330;2024-02-26T15:50:25;99240.69;;;6.29;100.00
48796;BME280;34607;48.520;-1.330;2024-02-26T15:52:52;99240.69;;;6.29;100.00
48796;BME280;34607;48.520;-1.330;2024-02-26T15:55:20;99247.38;;;6.16;100.00
48796;BME280;34607;48.520;-1.330;2024-02-26T15:57:47;99243.84;;;6.09;100.00
48796;BME280;34607;48.520;-1.330;2024-02-26T16:00:15;99251.69;;;6.18;100.00
48796;BME280;34607;48.520;-1.330;2024-02-26T16:02:47;99274.00;;;6.21;100.00
48796;BME280;34607;48.520;-1.330;2024-02-26T16:05:15;99274.94;;;6.26;100.00
48796;BME280;34607;48.520;-1.330;2024-02-26T16:07:45;99275.19;;;6.42;100.00
48796;BME280;34607;48.520;-1.330;2024-02-26T16:10:15;99287.03;;;6.32;100.00
48796;BME280;34607;48.520;-1.330;2024-02-26T16:12:47;99262.84;;;6.19;100.00
48796;BME280;34607;48.520;-1.330;2024-02-26T16:15:15;99285.47;;;6.42;100.00
48796;BME280;34607;48.520;-1.330;2024-02-26T16:17:44;99307.63;;;6.33;100.00
48796;BME280;34607;48.520;-1.330;2024-02-26T16:20:13;99322.25;;;6.36;100.00
48796;BME280;34607;48.520;-1.330;2024-02-26T16:22:41;99304.41;;;6.47;100.00
48796;BME280;34607;48.520;-1.330;2024-02-26T16:25:08;99319.66;;;6.34;100.00
48796;BME280;34607;48.520;-1.330;2024-02-26T16:27:36;99345.28;;;6.30;100.00
48796;BME280;34607;48.520;-1.330;2024-02-26T16:30:04;99297.19;;;6.23;100.00
48796;BME280;34607;48.520;-1.330;2024-02-26T16:32:31;99333.28;;;6.30;100.00
48796;BME280;34607;48.520;-1.330;2024-02-26T16:35:00;99339.44;;;6.40;100.00
48796;BME280;34607;48.520;-1.330;2024-02-26T16:37:28;99345.25;;;6.28;100.00
48796;BME280;34607;48.520;-1.330;2024-02-26T16:39:58;99339.03;;;6.15;100.00
48796;BME280;34607;48.520;-1.330;2024-02-26T16:42:26;99354.44;;;6.14;100.00
48796;BME280;34607;48.520;-1.330;2024-02-26T16:44:53;99348.69;;;6.27;100.00
48796;BME280;34607;48.520;-1.330;2024-02-26T16:47:21;99340.06;;;6.27;100.00
48796;BME280;34607;48.520;-1.330;2024-02-26T16:49:49;99361.69;;;6.36;100.00
48796;BME280;34607;48.520;-1.330;2024-02-26T16:52:17;99365.03;;;6.34;100.00
48796;BME280;34607;48.520;-1.330;2024-02-26T16:54:44;99383.97;;;6.36;100.00
48796;BME280;34607;48.520;-1.330;2024-02-26T16:57:11;99381.47;;;6.42;100.00
48796;BME280;34607;48.520;-1.330;2024-02-26T16:59:38;99368.41;;;6.30;100.00
48796;BME280;34607;48.520;-1.330;2024-02-26T17:02:06;99380.47;;;6.34;100.00
48796;BME280;34607;48.520;-1.330;2024-02-26T17:04:34;99402.78;;;6.35;100.00
48796;BME280;34607;48.520;-1.330;2024-02-26T17:07:01;99405.44;;;6.40;100.00
48796;BME280;34607;48.520;-1.330;2024-02-26T17:09:30;99408.66;;;6.28;100.00
48796;BME280;34607;48.520;-1.330;2024-02-26T17:11:58;99411.28;;;6.31;100.00
48796;BME280;34607;48.520;-1.330;2024-02-26T17:14:25;99424.91;;;6.27;100.00
48796;BME280;34607;48.520;-1.330;2024-02-26T17:16:52;99429.03;;;6.17;100.00
48796;BME280;34607;48.520;-1.330;2024-02-26T17:19:20;99436.59;;;6.09;100.00
48796;BME280;34607;48.520;-1.330;2024-02-26T17:21:47;99448.84;;;6.23;100.00
48796;BME280;34607;48.520;-1.330;2024-02-26T17:24:14;99465.69;;;6.07;100.00
48796;BME280;34607;48.520;-1.330;2024-02-26T17:26:42;99461.75;;;6.26;100.00
48796;BME280;34607;48.520;-1.330;2024-02-26T17:29:10;99480.38;;;6.14;100.00
48796;BME280;34607;48.520;-1.330;2024-02-26T17:31:37;99485.69;;;6.23;100.00
48796;BME280;34607;48.520;-1.330;2024-02-26T17:34:08;99489.34;;;5.93;100.00
48796;BME280;34607;48.520;-1.330;2024-02-26T17:36:35;99493.00;;;6.03;100.00
48796;BME280;34607;48.520;-1.330;2024-02-26T17:39:03;99495.53;;;6.00;100.00
48796;BME280;34607;48.520;-1.330;2024-02-26T17:41:31;99506.72;;;6.04;100.00
48796;BME280;34607;48.520;-1.330;2024-02-26T17:43:59;99504.88;;;5.96;100.00
48796;BME280;34607;48.520;-1.330;2024-02-26T17:46:27;99518.66;;;6.00;100.00
48796;BME280;34607;48.520;-1.330;2024-02-26T17:48:54;99524.66;;;6.00;100.00
48796;BME280;34607;48.520;-1.330;2024-02-26T17:51:21;99529.56;;;5.91;100.00
48796;BME280;34607;48.520;-1.330;2024-02-26T17:53:48;99546.66;;;5.91;100.00
48796;BME280;34607;48.520;-1.330;2024-02-26T17:56:15;99546.88;;;5.98;100.00
48796;BME280;34607;48.520;-1.330;2024-02-26T17:58:43;99545.00;;;5.93;100.00
48796;BME280;34607;48.520;-1.330;2024-02-26T18:01:11;99547.50;;;5.90;100.00
48796;BME280;34607;48.520;-1.330;2024-02-26T18:03:38;99530.72;;;6.04;100.00
48796;BME280;34607;48.520;-1.330;2024-02-26T18:06:06;99556.03;;;5.89;99.61
48796;BME280;34607;48.520;-1.330;2024-02-26T18:08:33;99550.97;;;5.92;99.13
48796;BME280;34607;48.520;-1.330;2024-02-26T18:11:00;99566.72;;;6.06;98.22
48796;BME280;34607;48.520;-1.330;2024-02-26T18:13:27;99578.66;;;6.02;98.38
48796;BME280;34607;48.520;-1.330;2024-02-26T18:15:54;99590.84;;;6.11;98.45
48796;BME280;34607;48.520;-1.330;2024-02-26T18:18:24;99584.59;;;6.01;96.97
48796;BME280;34607;48.520;-1.330;2024-02-26T18:20:51;99592.41;;;6.04;96.17
48796;BME280;34607;48.520;-1.330;2024-02-26T18:23:18;99594.19;;;6.08;96.26
48796;BME280;34607;48.520;-1.330;2024-02-26T18:25:45;99608.78;;;6.09;96.00
48796;BME280;34607;48.520;-1.330;2024-02-26T18:28:12;99607.06;;;6.10;94.67
48796;BME280;34607;48.520;-1.330;2024-02-26T18:30:39;99601.16;;;6.12;95.62
48796;BME280;34607;48.520;-1.330;2024-02-26T18:33:10;99632.34;;;6.28;95.27
48796;BME280;34607;48.520;-1.330;2024-02-26T18:35:39;99627.97;;;6.25;94.88
48796;BME280;34607;48.520;-1.330;2024-02-26T18:38:06;99629.28;;;6.06;93.91
48796;BME280;34607;48.520;-1.330;2024-02-26T18:40:33;99650.97;;;6.17;93.63
48796;BME280;34607;48.520;-1.330;2024-02-26T18:43:01;99652.81;;;6.25;93.45
48796;BME280;34607;48.520;-1.330;2024-02-26T18:45:29;99666.38;;;6.17;92.20
48796;BME280;34607;48.520;-1.330;2024-02-26T18:47:56;99653.53;;;6.17;92.85
48796;BME280;34607;48.520;-1.330;2024-02-26T18:50:23;99669.16;;;6.27;92.82
48796;BME280;34607;48.520;-1.330;2024-02-26T18:52:51;99671.69;;;6.25;93.06
48796;BME280;34607;48.520;-1.330;2024-02-26T18:55:19;99680.28;;;6.26;92.97
48796;BME280;34607;48.520;-1.330;2024-02-26T18:57:46;99677.56;;;6.19;92.78
48796;BME280;34607;48.520;-1.330;2024-02-26T19:00:13;99695.75;;;6.27;91.99
48796;BME280;34607;48.520;-1.330;2024-02-26T19:02:40;99696.69;;;6.31;92.01
48796;BME280;34607;48.520;-1.330;2024-02-26T19:05:08;99697.66;;;6.36;92.21
48796;BME280;34607;48.520;-1.330;2024-02-26T19:07:35;99709.53;;;6.31;90.48
48796;BME280;34607;48.520;-1.330;2024-02-26T19:10:04;99712.13;;;6.31;90.61
48796;BME280;34607;48.520;-1.330;2024-02-26T19:12:31;99727.63;;;6.35;90.76
48796;BME280;34607;48.520;-1.330;2024-02-26T19:14:58;99716.47;;;6.35;91.14
48796;BME280;34607;48.520;-1.330;2024-02-26T19:17:25;99721.53;;;6.32;91.08
48796;BME280;34607;48.520;-1.330;2024-02-26T19:19:52;99724.97;;;6.31;91.26
48796;BME280;34607;48.520;-1.330;2024-02-26T19:22:19;99729.75;;;6.15;90.80
48796;BME280;34607;48.520;-1.330;2024-02-26T19:24:46;99753.19;;;6.28;91.53
48796;BME280;34607;48.520;-1.330;2024-02-26T19:27:15;99765.50;;;6.41;91.56
48796;BME280;34607;48.520;-1.330;2024-02-26T19:29:42;99758.13;;;6.20;90.90
48796;BME280;34607;48.520;-1.330;2024-02-26T19:32:09;99784.94;;;6.30;91.42
48796;BME280;34607;48.520;-1.330;2024-02-26T19:34:37;99745.31;;;6.22;90.76
48796;BME280;34607;48.520;-1.330;2024-02-26T19:37:05;99781.66;;;6.37;90.91
48796;BME280;34607;48.520;-1.330;2024-02-26T19:39:32;99770.47;;;6.35;89.89
48796;BME280;34607;48.520;-1.330;2024-02-26T19:41:59;99793.63;;;6.35;90.12
48796;BME280;34607;48.520;-1.330;2024-02-26T19:44:27;99789.28;;;6.32;90.31
48796;BME280;34607;48.520;-1.330;2024-02-26T19:46:55;99800.31;;;6.28;90.09
48796;BME280;34607;48.520;-1.330;2024-02-26T19:49:23;99797.81;;;6.31;90.82
48796;BME280;34607;48.520;-1.330;2024-02-26T19:51:49;99817.44;;;6.28;90.77
48796;BME280;34607;48.520;-1.330;2024-02-26T19:54:16;99820.84;;;6.27;90.98
48796;BME280;34607;48.520;-1.330;2024-02-26T19:56:43;99823.44;;;6.28;91.41
48796;BME280;34607;48.520;-1.330;2024-02-26T19:59:12;99843.25;;;6.31;91.36
48796;BME280;34607;48.520;-1.330;2024-02-26T20:01:41;99849.44;;;6.39;91.76
48796;BME280;34607;48.520;-1.330;2024-02-26T20:04:08;99851.59;;;6.24;91.52
48796;BME280;34607;48.520;-1.330;2024-02-26T20:06:38;99851.31;;;6.11;92.40
48796;BME280;34607;48.520;-1.330;2024-02-26T20:09:06;99855.03;;;6.23;92.30
48796;BME280;34607;48.520;-1.330;2024-02-26T20:11:33;99873.94;;;6.25;92.50
48796;BME280;34607;48.520;-1.330;2024-02-26T20:14:01;99870.38;;;6.19;91.73
48796;BME280;34607;48.520;-1.330;2024-02-26T20:16:28;99878.03;;;6.18;91.82
48796;BME280;34607;48.520;-1.330;2024-02-26T20:18:57;99879.47;;;6.08;92.00
48796;BME280;34607;48.520;-1.330;2024-02-26T20:21:24;99886.38;;;6.09;91.68
48796;BME280;34607;48.520;-1.330;2024-02-26T20:23:51;99887.53;;;6.21;91.35
48796;BME280;34607;48.520;-1.330;2024-02-26T20:26:18;99890.22;;;6.25;90.88
48796;BME280;34607;48.520;-1.330;2024-02-26T20:28:45;99896.06;;;6.19;90.99
48796;BME280;34607;48.520;-1.330;2024-02-26T20:31:12;99903.75;;;6.18;91.19
48796;BME280;34607;48.520;-1.330;2024-02-26T20:33:39;99914.88;;;6.17;92.13
48796;BME280;34607;48.520;-1.330;2024-02-26T20:36:09;99914.28;;;6.27;92.48
48796;BME280;34607;48.520;-1.330;2024-02-26T20:38:36;99917.50;;;6.20;92.73
48796;BME280;34607;48.520;-1.330;2024-02-26T20:41:03;99925.16;;;6.18;93.47
48796;BME280;34607;48.520;-1.330;2024-02-26T20:43:31;99903.41;;;6.06;93.52
48796;BME280;34607;48.520;-1.330;2024-02-26T20:45:59;99934.47;;;6.13;92.97
48796;BME280;34607;48.520;-1.330;2024-02-26T20:48:26;99938.06;;;6.20;92.71
48796;BME280;34607;48.520;-1.330;2024-02-26T20:50:53;99947.69;;;6.26;92.71
48796;BME280;34607;48.520;-1.330;2024-02-26T20:53:22;99937.59;;;6.02;92.33
48796;BME280;34607;48.520;-1.330;2024-02-26T20:55:49;99965.34;;;6.15;92.36
48796;BME280;34607;48.520;-1.330;2024-02-26T20:58:16;99964.53;;;6.16;91.35
48796;BME280;34607;48.520;-1.330;2024-02-26T21:00:44;99972.34;;;6.19;91.51
48796;BME280;34607;48.520;-1.330;2024-02-26T21:03:12;99964.41;;;6.11;91.53
48796;BME280;34607;48.520;-1.330;2024-02-26T21:05:39;99976.44;;;6.12;91.69
48796;BME280;34607;48.520;-1.330;2024-02-26T21:08:07;99990.84;;;6.07;91.71
48796;BME280;34607;48.520;-1.330;2024-02-26T21:10:36;99996.03;;;6.09;91.81
48796;BME280;34607;48.520;-1.330;2024-02-26T21:13:03;99996.81;;;6.06;92.42
48796;BME280;34607;48.520;-1.330;2024-02-26T21:15:30;99998.47;;;6.04;92.54
48796;BME280;34607;48.520;-1.330;2024-02-26T21:17:57;99994.16;;;6.03;92.55
48796;BME280;34607;48.520;-1.330;2024-02-26T21:20:25;100009.66;;;6.06;92.17
48796;BME280;34607;48.520;-1.330;2024-02-26T21:22:57;100008.75;;;6.04;92.62
48796;BME280;34607;48.520;-1.330;2024-02-26T21:25:24;100008.56;;;5.96;91.97
48796;BME280;34607;48.520;-1.330;2024-02-26T21:27:53;100027.56;;;6.03;92.41
48796;BME280;34607;48.520;-1.330;2024-02-26T21:30:21;100023.13;;;5.97;91.99
48796;BME280;34607;48.520;-1.330;2024-02-26T21:32:48;100028.31;;;5.99;92.41
48796;BME280;34607;48.520;-1.330;2024-02-26T21:35:15;100030.97;;;6.02;91.75
48796;BME280;34607;48.520;-1.330;2024-02-26T21:37:42;100049.50;;;5.92;92.08
48796;BME280;34607;48.520;-1.330;2024-02-26T21:40:11;100046.66;;;5.84;91.76